»·PEaware :: AAL2379 KMIA-TIST

AAL2379 :: KMIA-TIST

FLIGHT INFORMATION

Flight Status: Arrived
Operator:
American Airlines
More flights by this operator :: More flights under this callsign
Pilot: Drew L. (13237)
Aircraft: BOEING 757-200
(B752)
More flights by this aircraft type
Origin: KMIA Miami Intl
United States
Destination: TIST St. Thomas - King
U.S. Virgin Islands
More flights between these airports :: More routes between these airports
Route: SKIPS2 SKIPS BR53V RAJAY A555 HARDE JETSS STT
File this flight plan on PilotEdge
Remarks: Sample flight plan
Altitude:
(Current/Filed)
37,000ft
Speed:
(Current/Filed)
115kts
Departed: 03-Jun-17 05:33 PM
Arrived: 03-Jun-17 07:40 PM
Distance/Time
Traveled:
961nm/2:07
Distance/Time
To Go:
Arrived

Flight Plot

Page will automatically refresh every two minutes.

Flight plan parsing failed; only flown route is shown


Map Options




Map Legend


Flown Route
Filed Route
Departure Airport
Arrival Airport
Navaid (VOR, NDB)
Fix

Horizontal Profiles

Position Reports

Time Latitude Longitude Heading Altitude Ground
Speed
03-Jun-17 17:30 25.799011 -80.284101 269 17ft 2kts
03-Jun-17 17:31 25.799263 -80.289909 267 17ft 23kts
03-Jun-17 17:32 25.798976 -80.296800 267 17ft 21kts
03-Jun-17 17:33 25.799527 -80.301480 285 17ft 12kts
03-Jun-17 17:34 25.798670 -80.301042 119 17ft 40kts
03-Jun-17 17:35 25.779164 -80.262160 117 1684ft 180kts
03-Jun-17 17:36 25.752890 -80.201805 104 3867ft 259kts
03-Jun-17 17:37 25.736925 -80.123653 102 8059ft 265kts
03-Jun-17 17:38 25.723284 -80.039834 99 10445ft 313kts
03-Jun-17 17:39 25.702935 -79.932412 101 12803ft 378kts
03-Jun-17 17:40 25.679946 -79.816679 102 16145ft 394kts
03-Jun-17 17:41 25.655613 -79.695821 103 19007ft 412kts
03-Jun-17 17:42 25.627478 -79.570371 103 21509ft 430kts
03-Jun-17 17:43 25.598095 -79.439689 104 23753ft 447kts
03-Jun-17 17:44 25.567742 -79.305303 104 25723ft 463kts
03-Jun-17 17:45 25.535714 -79.165056 104 27489ft 477kts
03-Jun-17 17:46 25.502699 -79.021366 104 29082ft 490kts
03-Jun-17 17:47 25.468674 -78.873826 104 30494ft 503kts
03-Jun-17 17:48 25.433695 -78.722908 104 31865ft 511kts
03-Jun-17 17:49 25.398244 -78.571012 104 33523ft 512kts
03-Jun-17 17:50 25.362651 -78.419304 104 35167ft 511kts
03-Jun-17 17:51 25.327602 -78.270624 104 36641ft 511kts
03-Jun-17 17:52 25.283208 -78.122026 111 37075ft 511kts
03-Jun-17 17:53 25.229773 -77.976958 112 37076ft 511kts
03-Jun-17 17:54 25.174248 -77.833112 113 37079ft 511kts
03-Jun-17 17:55 25.119228 -77.688704 112 37080ft 512kts
03-Jun-17 17:56 25.064923 -77.543926 112 37081ft 512kts
03-Jun-17 17:57 25.001192 -77.404190 126 37092ft 512kts
03-Jun-17 17:58 24.919383 -77.277090 126 37075ft 512kts
03-Jun-17 17:59 24.836865 -77.150135 126 37072ft 512kts
03-Jun-17 18:00 24.754016 -77.023127 126 37073ft 512kts
03-Jun-17 18:01 24.670996 -76.896207 126 37075ft 512kts
03-Jun-17 18:02 24.588002 -76.769661 126 37077ft 512kts
03-Jun-17 18:03 24.504864 -76.643222 126 37078ft 513kts
03-Jun-17 18:04 24.421330 -76.516513 126 37080ft 513kts
03-Jun-17 18:05 24.337765 -76.390081 126 37082ft 513kts
03-Jun-17 18:06 24.254317 -76.264153 127 37074ft 513kts
03-Jun-17 18:07 24.170476 -76.137960 127 37075ft 513kts
03-Jun-17 18:08 24.086582 -76.012005 127 37077ft 514kts
03-Jun-17 18:09 24.002487 -75.886075 127 37079ft 514kts
03-Jun-17 18:10 23.918249 -75.760251 127 37081ft 514kts
03-Jun-17 18:11 23.834555 -75.635563 127 37076ft 514kts
03-Jun-17 18:12 23.749984 -75.509877 127 37078ft 514kts
03-Jun-17 18:13 23.679420 -75.405249 127 37080ft 515kts
03-Jun-17 18:14 23.581660 -75.258748 121 37071ft 515kts
03-Jun-17 18:15 23.512387 -75.122077 118 37074ft 515kts
03-Jun-17 18:16 23.443811 -74.985621 118 37075ft 516kts
03-Jun-17 18:17 23.375049 -74.849036 118 37032ft 516kts
03-Jun-17 18:18 23.306133 -74.712508 118 37025ft 516kts
03-Jun-17 18:19 23.248590 -74.598796 118 37027ft 516kts
03-Jun-17 18:20 23.179543 -74.462689 118 37028ft 516kts
03-Jun-17 18:21 23.098385 -74.304147 119 37019ft 516kts
03-Jun-17 18:22 23.039957 -74.190965 119 37022ft 516kts
03-Jun-17 18:23 22.969749 -74.055286 119 37024ft 517kts
03-Jun-17 18:24 22.899763 -73.920393 119 37026ft 517kts
03-Jun-17 18:25 22.829375 -73.785091 119 37021ft 517kts
03-Jun-17 18:26 22.758968 -73.650113 119 37023ft 517kts
03-Jun-17 18:27 22.688007 -73.514428 119 37025ft 517kts
03-Jun-17 18:28 22.617149 -73.379298 119 37027ft 517kts
03-Jun-17 18:29 22.546423 -73.244767 119 37018ft 517kts
03-Jun-17 18:30 22.475250 -73.109732 119 37021ft 519kts
03-Jun-17 18:31 22.403705 -72.974374 119 37022ft 519kts
03-Jun-17 18:32 22.332008 -72.839073 119 37024ft 519kts
03-Jun-17 18:33 22.260388 -72.704267 119 37026ft 519kts
03-Jun-17 18:34 22.192341 -72.567096 117 37028ft 520kts
03-Jun-17 18:35 22.125491 -72.429277 119 37030ft 520kts
03-Jun-17 18:36 22.054758 -72.293883 119 37020ft 520kts
03-Jun-17 18:37 21.983819 -72.158237 119 37023ft 520kts
03-Jun-17 18:38 21.912986 -72.023119 119 37025ft 520kts
03-Jun-17 18:39 21.842171 -71.888379 119 37020ft 520kts
03-Jun-17 18:40 21.770833 -71.752994 119 37022ft 520kts
03-Jun-17 18:41 21.699606 -71.618162 119 37024ft 520kts
03-Jun-17 18:42 21.628200 -71.483329 119 37026ft 521kts
03-Jun-17 18:43 21.556469 -71.348221 119 37028ft 521kts
03-Jun-17 18:44 21.484731 -71.213435 119 37018ft 521kts
03-Jun-17 18:45 21.410463 -71.080675 123 37022ft 521kts
03-Jun-17 18:46 21.331628 -70.950512 123 37023ft 521kts
03-Jun-17 18:47 21.253030 -70.820852 123 37025ft 521kts
03-Jun-17 18:48 21.174354 -70.691347 123 37027ft 521kts
03-Jun-17 18:49 21.095171 -70.561457 123 37029ft 521kts
03-Jun-17 18:50 21.015880 -70.431753 123 37031ft 521kts
03-Jun-17 18:51 20.936679 -70.302496 123 37020ft 521kts
03-Jun-17 18:52 20.859618 -70.176976 123 37016ft 522kts
03-Jun-17 18:53 20.780058 -70.047611 123 37018ft 522kts
03-Jun-17 18:54 20.700449 -69.918462 123 37020ft 522kts
03-Jun-17 18:55 20.620657 -69.789306 123 37022ft 522kts
03-Jun-17 18:56 20.540669 -69.660492 123 37024ft 522kts
03-Jun-17 18:57 20.460529 -69.532644 124 36999ft 522kts
03-Jun-17 18:58 20.379769 -69.404308 124 37002ft 522kts
03-Jun-17 18:59 20.299292 -69.276697 124 36992ft 522kts
03-Jun-17 19:00 20.218340 -69.148618 124 36994ft 522kts
03-Jun-17 19:01 20.137337 -69.020732 124 36996ft 522kts
03-Jun-17 19:02 20.056149 -68.892835 124 36998ft 522kts
03-Jun-17 19:03 19.986028 -68.758516 110 37006ft 522kts
03-Jun-17 19:04 19.932154 -68.615863 110 37003ft 522kts
03-Jun-17 19:05 19.879275 -68.475280 110 36997ft 522kts
03-Jun-17 19:06 19.826233 -68.334552 110 36992ft 522kts
03-Jun-17 19:07 19.772365 -68.191984 110 37089ft 522kts
03-Jun-17 19:08 19.718324 -68.049371 110 37099ft 522kts
03-Jun-17 19:09 19.664096 -67.906653 110 37102ft 522kts
03-Jun-17 19:10 19.610020 -67.764728 110 37104ft 522kts
03-Jun-17 19:11 19.555462 -67.621932 110 37106ft 522kts
03-Jun-17 19:12 19.501045 -67.479887 110 37108ft 522kts
03-Jun-17 19:13 19.446843 -67.338484 114 37093ft 515kts
03-Jun-17 19:14 19.393632 -67.200556 114 35869ft 491kts
03-Jun-17 19:15 19.342007 -67.066933 114 34376ft 492kts
03-Jun-17 19:16 19.290391 -66.933627 114 32569ft 492kts
03-Jun-17 19:17 19.238455 -66.799755 114 30607ft 492kts
03-Jun-17 19:18 19.186599 -66.666497 114 28657ft 489kts
03-Jun-17 19:19 19.135816 -66.536281 114 26676ft 473kts
03-Jun-17 19:20 19.086587 -66.410363 113 24700ft 457kts
03-Jun-17 19:21 19.043232 -66.299728 114 22890ft 443kts
03-Jun-17 19:22 18.996928 -66.181821 114 20874ft 427kts
03-Jun-17 19:23 18.952224 -66.068222 114 18867ft 412kts
03-Jun-17 19:24 18.909898 -65.960846 114 17801ft 371kts
03-Jun-17 19:25 18.871835 -65.864548 114 16378ft 352kts
03-Jun-17 19:26 18.834235 -65.769558 114 15392ft 349kts
03-Jun-17 19:27 18.801096 -65.674138 112 14406ft 344kts
03-Jun-17 19:28 18.748928 -65.594476 143 13329ft 332kts
03-Jun-17 19:29 18.677767 -65.533882 143 11659ft 326kts
03-Jun-17 19:30 18.602139 -65.483839 151 10019ft 320kts
03-Jun-17 19:31 18.526056 -65.436793 151 8435ft 314kts
03-Jun-17 19:32 18.452929 -65.392936 151 7630ft 276kts
03-Jun-17 19:33 18.394436 -65.358094 150 6544ft 227kts
03-Jun-17 19:34 18.348461 -65.318922 114 5015ft 218kts
03-Jun-17 19:35 18.333709 -65.258377 96 4239ft 212kts
03-Jun-17 19:36 18.329770 -65.201465 96 3062ft 182kts
03-Jun-17 19:37 18.329653 -65.153069 90 2896ft 160kts
03-Jun-17 19:38 18.331609 -65.107015 88 2432ft 145kts
03-Jun-17 19:39 18.333297 -65.067738 88 1627ft 132kts
03-Jun-17 19:40 18.334928 -65.029412 88 915ft 130kts
03-Jun-17 19:41 18.336531 -64.991586 88 230ft 129kts
03-Jun-17 19:42 18.337476 -64.968380 88 33ft 23kts
03-Jun-17 19:43 18.336709 -64.969025 267 32ft 15kts
03-Jun-17 19:44 18.336330 -64.972693 176 32ft 3kts
03-Jun-17 19:45 18.335746 -64.972663 176 32ft 0kts

Navigation Log

Ident Type
Flight plan parsing failed, navigation log unavailable